createdAt,value
2023-03-26T00:01:25.118Z,80.63
2023-03-26T00:03:57.719Z,80.42
2023-03-26T00:06:36.863Z,80.32
2023-03-26T00:09:05.427Z,80.61
2023-03-26T00:11:32.216Z,80.15
2023-03-26T00:13:59.199Z,80.45
2023-03-26T00:16:29.976Z,80.02
2023-03-26T00:18:57.900Z,80.17
2023-03-26T00:21:29.342Z,80.02
2023-03-26T00:23:59.785Z,80.65
2023-03-26T00:26:29.765Z,80.70
2023-03-26T00:28:57.809Z,80.16
2023-03-26T00:31:24.790Z,80.91
2023-03-26T00:33:56.023Z,80.48
2023-03-26T00:36:28.363Z,80.26
2023-03-26T00:38:55.587Z,80.57
2023-03-26T00:41:31.092Z,80.55
2023-03-26T00:43:59.546Z,80.62
2023-03-26T00:46:29.152Z,80.18
2023-03-26T00:48:59.918Z,80.33
2023-03-26T00:51:28.201Z,80.59
2023-03-26T00:53:55.893Z,80.57
2023-03-26T00:56:22.879Z,80.31
2023-03-26T00:58:50.369Z,80.33
2023-03-26T01:01:28.654Z,80.16
2023-03-26T01:04:08.718Z,80.55
2023-03-26T01:06:41.491Z,80.61
2023-03-26T01:09:15.915Z,80.14
2023-03-26T01:11:43.203Z,80.48
2023-03-26T01:14:30.374Z,80.33
2023-03-26T01:17:02.700Z,80.36
2023-03-26T01:19:58.860Z,80.66
2023-03-26T01:22:27.151Z,80.53
2023-03-26T01:24:56.741Z,80.64
2023-03-26T01:27:34.288Z,80.04
2023-03-26T01:30:42.416Z,80.18
2023-03-26T01:33:36.657Z,80.31
2023-03-26T01:36:17.880Z,80.26
2023-03-26T01:39:04.021Z,80.44
2023-03-26T01:41:51.747Z,79.97
2023-03-26T01:44:50.323Z,80.37
2023-03-26T01:47:17.933Z,80.61
2023-03-26T01:49:44.781Z,80.35
2023-03-26T01:52:25.170Z,80.23
2023-03-26T01:54:54.497Z,79.99
2023-03-26T01:57:50.415Z,80.86
2023-03-26T02:00:34.216Z,80.65
2023-03-26T02:03:35.056Z,80.64
2023-03-26T02:06:11.382Z,80.53
2023-03-26T02:08:47.031Z,80.38
2023-03-26T02:11:16.504Z,80.71
2023-03-26T02:13:45.435Z,80.44
2023-03-26T02:16:16.507Z,80.27
2023-03-26T02:18:45.272Z,80.33
2023-03-26T02:21:20.123Z,80.40
2023-03-26T02:23:50.836Z,80.42
2023-03-26T02:26:19.873Z,80.76
2023-03-26T02:28:58.959Z,80.13
2023-03-26T02:31:30.323Z,80.26
2023-03-26T02:33:57.453Z,80.74
2023-03-26T02:36:29.988Z,80.82
2023-03-26T02:39:00.561Z,80.32
2023-03-26T02:41:30.453Z,80.74
2023-03-26T02:44:01.352Z,80.28
2023-03-26T02:46:48.166Z,80.85
2023-03-26T02:49:35.151Z,80.68
2023-03-26T02:52:06.562Z,80.41
2023-03-26T02:54:35.711Z,80.45
2023-03-26T02:57:20.297Z,80.64
2023-03-26T03:00:09.163Z,80.78
2023-03-26T03:02:48.443Z,80.71
2023-03-26T03:05:38.134Z,80.34
2023-03-26T03:08:19.402Z,80.86
2023-03-26T03:11:11.921Z,80.78
2023-03-26T03:13:45.582Z,80.64
2023-03-26T03:16:16.587Z,80.32
2023-03-26T03:18:43.735Z,80.74
2023-03-26T03:21:10.965Z,80.67
2023-03-26T03:23:37.857Z,80.44
2023-03-26T03:26:16.662Z,80.52
2023-03-26T03:28:50.804Z,80.71
2023-03-26T03:31:18.179Z,80.71
2023-03-26T03:33:46.515Z,80.25
2023-03-26T03:36:22.066Z,80.58
2023-03-26T03:39:02.460Z,80.86
2023-03-26T03:41:30.354Z,80.76
2023-03-26T03:43:59.925Z,80.85
2023-03-26T03:46:30.978Z,80.83
2023-03-26T03:48:58.193Z,80.69
2023-03-26T03:51:29.885Z,80.61
2023-03-26T03:53:59.892Z,80.32
2023-03-26T03:56:47.368Z,80.69
2023-03-26T03:59:34.227Z,80.47
2023-03-26T04:02:04.472Z,80.70
2023-03-26T04:04:38.199Z,80.40
2023-03-26T04:07:08.641Z,80.54
2023-03-26T04:09:56.192Z,80.64
2023-03-26T04:12:24.928Z,80.36
2023-03-26T04:14:58.569Z,80.43
2023-03-26T04:17:26.020Z,80.38
2023-03-26T04:19:55.479Z,80.57
2023-03-26T04:22:36.577Z,80.51
2023-03-26T04:25:07.692Z,80.64
2023-03-26T04:27:44.529Z,80.85
2023-03-26T04:30:23.306Z,80.42
2023-03-26T04:33:15.368Z,80.82
2023-03-26T04:35:46.017Z,80.41
2023-03-26T04:38:16.842Z,80.50
2023-03-26T04:40:49.768Z,80.64
2023-03-26T04:43:36.590Z,80.33
2023-03-26T04:46:23.649Z,80.80
2023-03-26T04:49:01.237Z,80.40
2023-03-26T04:51:38.252Z,80.47
2023-03-26T04:54:14.515Z,80.53
2023-03-26T04:57:00.209Z,80.62
2023-03-26T04:59:37.200Z,80.92
2023-03-26T05:02:09.680Z,80.32
2023-03-26T05:04:48.533Z,80.57
2023-03-26T05:07:22.455Z,80.69
2023-03-26T05:09:52.817Z,80.62
2023-03-26T05:12:31.184Z,80.64
2023-03-26T05:15:04.386Z,80.76
2023-03-26T05:17:51.646Z,80.95
2023-03-26T05:20:38.471Z,80.76
2023-03-26T05:23:08.106Z,80.56
2023-03-26T05:25:37.944Z,80.80
2023-03-26T05:28:12.204Z,80.49
2023-03-26T05:30:48.097Z,80.52
2023-03-26T05:33:16.439Z,80.74
2023-03-26T05:36:07.179Z,80.58
2023-03-26T05:38:34.228Z,80.91
2023-03-26T05:41:08.160Z,80.62
2023-03-26T05:43:37.312Z,80.46
2023-03-26T05:46:11.936Z,80.73
2023-03-26T05:48:39.315Z,80.68
2023-03-26T05:51:07.042Z,80.73
2023-03-26T05:53:34.526Z,80.67
2023-03-26T05:56:21.273Z,80.42
2023-03-26T05:59:08.159Z,80.45
2023-03-26T06:01:54.915Z,80.49
2023-03-26T06:04:42.600Z,80.44
2023-03-26T06:07:29.584Z,80.37
2023-03-26T06:10:17.942Z,80.42
2023-03-26T06:12:46.227Z,80.37
2023-03-26T06:15:13.325Z,80.40
2023-03-26T06:18:00.129Z,80.18
2023-03-26T06:20:47.325Z,80.35
2023-03-26T06:23:25.354Z,80.16
2023-03-26T06:26:06.605Z,80.15
2023-03-26T06:28:53.356Z,80.35
2023-03-26T06:31:41.309Z,80.28
2023-03-26T06:34:16.507Z,80.34
2023-03-26T06:36:43.620Z,80.17
2023-03-26T06:39:10.482Z,79.82
2023-03-26T06:41:45.720Z,79.94
2023-03-26T06:44:23.311Z,80.06
2023-03-26T06:47:10.446Z,80.02
2023-03-26T06:49:57.246Z,80.03
2023-03-26T06:52:35.178Z,79.87
2023-03-26T06:55:22.611Z,79.83
2023-03-26T06:58:11.668Z,80.00
2023-03-26T07:00:58.655Z,79.84
2023-03-26T07:03:45.993Z,79.87
2023-03-26T07:06:32.955Z,79.77
2023-03-26T07:09:19.717Z,79.45
2023-03-26T07:12:06.749Z,79.71
2023-03-26T07:14:53.635Z,79.58
2023-03-26T07:17:40.647Z,79.53
2023-03-26T07:20:16.847Z,79.56
2023-03-26T07:22:45.366Z,79.40
2023-03-26T07:25:29.233Z,79.36
2023-03-26T07:29:04.057Z,79.17
2023-03-26T07:32:01.431Z,79.43
2023-03-26T07:34:47.508Z,79.23
2023-03-26T07:40:51.269Z,79.34
2023-03-26T07:44:17.838Z,79.24
2023-03-26T07:47:22.327Z,79.40
2023-03-26T07:50:16.523Z,79.29
2023-03-26T07:53:05.428Z,79.32
2023-03-26T07:55:54.225Z,79.21
2023-03-26T07:59:07.169Z,79.20
2023-03-26T08:02:14.393Z,79.13
2023-03-26T08:04:58.410Z,79.17
2023-03-26T08:08:25.513Z,79.00
2023-03-26T08:11:50.374Z,78.85
2023-03-26T08:14:39.539Z,78.59
2023-03-26T08:17:23.994Z,78.49
2023-03-26T08:19:58.156Z,78.54
2023-03-26T08:22:31.931Z,78.44
2023-03-26T08:25:17.921Z,78.26
2023-03-26T08:28:00.033Z,77.90
2023-03-26T08:30:27.926Z,78.15
2023-03-26T08:32:57.451Z,78.17
2023-03-26T08:35:25.591Z,78.02
2023-03-26T08:37:53.246Z,78.12
2023-03-26T08:40:40.045Z,77.92
2023-03-26T08:43:24.537Z,77.79
2023-03-26T08:46:19.829Z,77.68
2023-03-26T08:49:27.868Z,77.41
2023-03-26T08:52:28.167Z,77.12
2023-03-26T08:55:15.307Z,77.13
2023-03-26T08:58:22.540Z,77.08
2023-03-26T09:01:27.170Z,77.30
2023-03-26T09:04:21.611Z,77.12
2023-03-26T09:07:28.274Z,76.74
2023-03-26T09:10:26.235Z,76.65
2023-03-26T09:13:32.893Z,76.70
2023-03-26T09:16:39.734Z,76.77
2023-03-26T09:19:46.525Z,76.94
2023-03-26T09:22:29.317Z,76.97
2023-03-26T09:25:39.867Z,76.69
2023-03-26T09:28:46.960Z,76.67
2023-03-26T09:31:58.065Z,77.00
2023-03-26T09:34:34.717Z,76.76
2023-03-26T09:37:56.801Z,77.13
2023-03-26T09:40:42.537Z,77.21
2023-03-26T09:43:49.396Z,77.23
2023-03-26T09:46:47.370Z,76.79
2023-03-26T09:49:36.684Z,77.27
2023-03-26T09:52:20.672Z,76.97
2023-03-26T09:55:22.897Z,77.25
2023-03-26T09:58:21.451Z,77.49
2023-03-26T10:01:15.910Z,77.18
2023-03-26T10:04:17.298Z,77.09
2023-03-26T10:07:24.160Z,77.73
2023-03-26T10:10:30.961Z,77.45
2023-03-26T10:13:26.716Z,77.03
2023-03-26T10:16:25.875Z,77.47
2023-03-26T10:19:07.945Z,77.09
2023-03-26T10:21:47.991Z,77.34
2023-03-26T10:24:42.891Z,77.07
2023-03-26T10:27:49.589Z,77.25
2023-03-26T10:30:36.520Z,76.82
2023-03-26T10:33:28.160Z,76.41
2023-03-26T10:36:23.280Z,76.34
2023-03-26T10:39:36.727Z,76.45
2023-03-26T10:42:36.257Z,76.11
2023-03-26T10:45:14.718Z,75.92
2023-03-26T10:48:21.646Z,75.82
2023-03-26T10:51:24.938Z,75.37
2023-03-26T10:53:56.366Z,75.40
2023-03-26T10:56:46.782Z,75.43
2023-03-26T10:59:15.003Z,75.27
2023-03-26T11:01:50.385Z,75.12
2023-03-26T11:04:47.173Z,75.20
2023-03-26T11:07:39.551Z,74.98
2023-03-26T11:10:16.897Z,75.35
2023-03-26T11:12:58.143Z,75.09
2023-03-26T11:15:30.403Z,75.32
2023-03-26T11:18:24.302Z,75.09
2023-03-26T11:21:18.668Z,75.15
2023-03-26T11:24:21.558Z,75.01
2023-03-26T11:26:58.337Z,75.36
2023-03-26T11:30:00.602Z,75.58
2023-03-26T11:32:40.530Z,75.68
2023-03-26T11:35:40.718Z,75.55
2023-03-26T11:38:20.513Z,75.42
2023-03-26T11:40:51.385Z,75.22
2023-03-26T11:43:36.937Z,75.52
2023-03-26T11:46:07.850Z,75.05
2023-03-26T11:48:44.582Z,74.98
2023-03-26T11:51:16.834Z,75.07
2023-03-26T11:53:46.798Z,75.15
2023-03-26T11:56:31.146Z,75.07
2023-03-26T11:59:18.450Z,74.80
2023-03-26T12:02:17.190Z,75.00
2023-03-26T12:04:45.909Z,74.75
2023-03-26T12:07:24.393Z,74.96
2023-03-26T12:09:56.818Z,74.92
2023-03-26T12:12:30.667Z,74.85
2023-03-26T12:14:59.726Z,74.43
2023-03-26T12:17:37.812Z,74.83
2023-03-26T12:20:33.638Z,74.77
2023-03-26T12:23:02.548Z,74.89
2023-03-26T12:25:33.256Z,74.75
2023-03-26T12:28:18.531Z,74.91
2023-03-26T12:31:05.501Z,73.99
2023-03-26T12:33:34.845Z,74.47
2023-03-26T12:36:24.767Z,74.32
2023-03-26T12:39:16.682Z,74.23
2023-03-26T12:44:43.721Z,74.04
2023-03-26T12:44:53.798Z,73.56
2023-03-26T12:48:00.604Z,73.79
2023-03-26T12:50:14.641Z,73.81
2023-03-26T12:53:15.974Z,73.08
2023-03-26T12:55:52.004Z,73.20
2023-03-26T12:58:58.775Z,73.13
2023-03-26T13:01:47.555Z,73.29
2023-03-26T13:05:05.025Z,73.45
2023-03-26T13:08:03.725Z,73.11
2023-03-26T13:10:56.377Z,72.99
2023-03-26T13:13:50.676Z,73.15
2023-03-26T13:16:47.804Z,72.97
2023-03-26T13:19:23.259Z,72.99
2023-03-26T13:22:07.441Z,72.83
2023-03-26T13:24:58.851Z,72.64
2023-03-26T13:28:00.394Z,72.92
2023-03-26T13:31:07.307Z,72.93
2023-03-26T13:33:41.092Z,72.69
2023-03-26T13:36:31.641Z,72.85
2023-03-26T13:39:21.082Z,72.73
2023-03-26T13:42:23.406Z,72.42
2023-03-26T13:45:30.105Z,72.36
2023-03-26T13:47:59.253Z,72.32
2023-03-26T13:50:31.468Z,72.16
2023-03-26T13:53:07.112Z,71.90
2023-03-26T13:55:44.076Z,71.71
2023-03-26T13:58:24.544Z,71.79
2023-03-26T14:01:07.502Z,71.81
2023-03-26T14:03:48.999Z,71.80
2023-03-26T14:06:57.681Z,71.33
2023-03-26T14:09:52.322Z,71.97
2023-03-26T14:12:49.553Z,71.34
2023-03-26T14:15:29.674Z,71.25
2023-03-26T14:18:32.771Z,70.76
2023-03-26T14:21:29.152Z,70.57
2023-03-26T14:24:35.852Z,70.79
2023-03-26T14:27:36.992Z,70.35
2023-03-26T14:30:33.614Z,69.94
2023-03-26T14:33:27.171Z,70.25
2023-03-26T14:36:11.481Z,70.00
2023-03-26T14:39:01.381Z,69.73
2023-03-26T14:41:50.504Z,69.23
2023-03-26T14:44:57.151Z,69.58
2023-03-26T14:47:24.980Z,69.56
2023-03-26T14:50:35.982Z,69.09
2023-03-26T14:53:10.417Z,69.03
2023-03-26T14:56:17.109Z,68.86
2023-03-26T14:59:23.783Z,68.77
2023-03-26T15:02:30.911Z,68.85
2023-03-26T15:05:27.388Z,68.50
2023-03-26T15:08:34.404Z,68.28
2023-03-26T15:11:22.743Z,68.23
2023-03-26T15:14:20.969Z,68.44
2023-03-26T15:17:16.581Z,67.90
2023-03-26T15:20:26.106Z,67.54
2023-03-26T15:23:24.111Z,67.78
2023-03-26T15:26:31.087Z,67.56
2023-03-26T15:29:08.615Z,67.50
2023-03-26T15:32:07.630Z,67.69
2023-03-26T15:35:14.969Z,67.42
2023-03-26T15:38:20.901Z,67.22
2023-03-26T15:41:17.665Z,67.38
2023-03-26T15:44:22.527Z,67.17
2023-03-26T15:47:17.511Z,67.42
2023-03-26T15:49:55.506Z,67.04
2023-03-26T15:52:28.437Z,67.35
2023-03-26T15:55:22.908Z,67.15
2023-03-26T15:58:18.554Z,67.11
2023-03-26T16:00:56.617Z,67.36
2023-03-26T16:03:41.855Z,67.09
2023-03-26T16:06:30.971Z,67.53
2023-03-26T16:09:29.075Z,67.56
2023-03-26T16:11:58.304Z,67.35
2023-03-26T16:14:46.949Z,67.58
2023-03-26T16:17:17.625Z,67.56
2023-03-26T16:20:14.988Z,67.34
2023-03-26T16:22:56.197Z,67.59
2023-03-26T16:25:33.444Z,67.74
2023-03-26T16:28:28.358Z,67.37
2023-03-26T16:31:37.321Z,67.55
2023-03-26T16:34:26.464Z,67.28
2023-03-26T16:36:54.898Z,66.96
2023-03-26T16:39:24.945Z,66.89
2023-03-26T16:41:56.640Z,66.91
2023-03-26T16:44:44.222Z,66.61
2023-03-26T16:47:25.541Z,67.02
2023-03-26T16:50:16.941Z,67.04
2023-03-26T16:53:09.246Z,66.54
2023-03-26T16:55:48.214Z,67.21
2023-03-26T16:58:33.625Z,67.12
2023-03-26T17:01:43.623Z,66.46
2023-03-26T17:04:17.367Z,66.71
2023-03-26T17:07:16.288Z,66.86
2023-03-26T17:09:55.677Z,66.18
2023-03-26T17:12:44.023Z,66.67
2023-03-26T17:15:42.922Z,66.68
2023-03-26T17:18:42.732Z,66.66
2023-03-26T17:21:16.134Z,66.65
2023-03-26T17:24:15.188Z,66.62
2023-03-26T17:27:00.622Z,66.33
2023-03-26T17:30:07.560Z,66.22
2023-03-26T17:33:14.206Z,66.49
2023-03-26T17:35:45.664Z,66.17
2023-03-26T17:38:52.407Z,66.31
2023-03-26T17:41:49.053Z,66.54
2023-03-26T17:44:37.350Z,66.38
2023-03-26T17:47:07.200Z,66.63
2023-03-26T17:49:35.443Z,66.53
2023-03-26T17:52:12.021Z,66.50
2023-03-26T17:54:44.442Z,66.52
2023-03-26T17:57:20.642Z,66.63
2023-03-26T17:59:51.940Z,66.54
2023-03-26T18:02:24.014Z,66.43
2023-03-26T18:04:53.507Z,66.39
2023-03-26T18:07:57.024Z,66.69
2023-03-26T18:10:56.087Z,66.78
2023-03-26T18:13:49.568Z,66.87
2023-03-26T18:16:24.831Z,66.90
2023-03-26T18:18:55.477Z,66.85
2023-03-26T18:21:43.668Z,67.05
2023-03-26T18:24:15.703Z,66.92
2023-03-26T18:26:49.690Z,66.96
2023-03-26T18:29:26.235Z,67.06
2023-03-26T18:31:57.763Z,66.90
2023-03-26T18:34:26.183Z,67.10
2023-03-26T18:37:17.767Z,67.05
2023-03-26T18:40:02.157Z,66.92
2023-03-26T18:42:30.805Z,67.18
2023-03-26T18:44:59.901Z,67.27
2023-03-26T18:47:29.627Z,67.22
2023-03-26T18:49:57.440Z,67.33
2023-03-26T18:52:24.540Z,67.37
2023-03-26T18:54:56.467Z,67.59
2023-03-26T18:57:27.211Z,67.53
2023-03-26T19:00:09.467Z,67.51
2023-03-26T19:02:39.093Z,67.56
2023-03-26T19:05:15.440Z,67.68
2023-03-26T19:07:44.337Z,67.76
2023-03-26T19:10:21.613Z,67.81
2023-03-26T19:12:57.204Z,68.00
2023-03-26T19:15:28.259Z,67.98
2023-03-26T19:18:14.850Z,68.10
2023-03-26T19:20:59.176Z,68.26
2023-03-26T19:23:33.379Z,67.88
2023-03-26T19:26:07.469Z,68.22
2023-03-26T19:28:41.464Z,68.31
2023-03-26T19:31:21.637Z,68.15
2023-03-26T19:33:56.140Z,68.47
2023-03-26T19:36:32.528Z,68.21
2023-03-26T19:39:24.177Z,68.40
2023-03-26T19:41:59.399Z,68.49
2023-03-26T19:44:29.074Z,68.38
2023-03-26T19:47:04.372Z,68.71
2023-03-26T19:49:34.038Z,68.50
2023-03-26T19:52:22.086Z,68.66
2023-03-26T19:55:24.647Z,68.82
2023-03-26T19:57:54.104Z,68.83
2023-03-26T20:00:22.022Z,69.01
2023-03-26T20:02:49.159Z,68.90
2023-03-26T20:05:27.802Z,69.14
2023-03-26T20:07:57.266Z,68.96
2023-03-26T20:10:24.770Z,68.89
2023-03-26T20:12:51.969Z,69.07
2023-03-26T20:15:23.131Z,69.01
2023-03-26T20:17:52.585Z,69.36
2023-03-26T20:20:19.615Z,69.41
2023-03-26T20:22:47.371Z,69.33
2023-03-26T20:25:20.482Z,69.46
2023-03-26T20:27:47.533Z,69.39
2023-03-26T20:32:45.624Z,69.73
2023-03-26T20:35:37.714Z,69.72
2023-03-26T20:38:06.226Z,69.41
2023-03-26T20:40:33.817Z,69.47
2023-03-26T20:43:01.935Z,69.66
2023-03-26T20:45:29.089Z,69.75
2023-03-26T20:47:55.973Z,69.84
2023-03-26T20:50:23.364Z,70.05
2023-03-26T20:52:50.665Z,69.83
2023-03-26T20:55:21.836Z,70.06
2023-03-26T20:57:49.113Z,70.07
2023-03-26T21:00:22.697Z,70.27
2023-03-26T21:02:53.968Z,70.13
2023-03-26T21:05:24.597Z,70.45
2023-03-26T21:07:53.396Z,70.50
2023-03-26T21:10:21.170Z,70.49
2023-03-26T21:12:58.346Z,70.52
2023-03-26T21:15:26.505Z,70.88
2023-03-26T21:17:55.002Z,70.80
2023-03-26T21:20:23.609Z,70.85
2023-03-26T21:23:16.248Z,70.94
2023-03-26T21:26:07.271Z,71.10
2023-03-26T21:28:47.281Z,71.12
2023-03-26T21:31:20.277Z,71.24
2023-03-26T21:33:49.376Z,71.35
2023-03-26T21:36:18.279Z,71.44
2023-03-26T21:38:46.016Z,71.53
2023-03-26T21:41:31.461Z,71.71
2023-03-26T21:43:59.890Z,71.92
2023-03-26T21:46:27.163Z,71.51
2023-03-26T21:48:54.393Z,71.84
2023-03-26T21:51:21.556Z,71.64
2023-03-26T21:53:49.032Z,71.55
2023-03-26T21:56:50.481Z,71.47
2023-03-26T21:59:51.406Z,71.57
2023-03-26T22:02:44.341Z,71.47
2023-03-26T22:05:26.021Z,71.29
2023-03-26T22:08:04.716Z,71.56
2023-03-26T22:10:32.123Z,71.61
2023-03-26T22:12:59.727Z,71.33
2023-03-26T22:15:30.534Z,71.39
2023-03-26T22:18:02.200Z,71.37
2023-03-26T22:20:29.617Z,71.31
2023-03-26T22:22:56.833Z,71.29
2023-03-26T22:25:24.144Z,71.39
2023-03-26T22:27:51.832Z,71.27
2023-03-26T22:30:20.914Z,71.23
2023-03-26T22:32:48.788Z,71.25
2023-03-26T22:35:16.275Z,71.40
2023-03-26T22:37:43.215Z,71.17
2023-03-26T22:40:12.982Z,71.33
2023-03-26T22:42:40.571Z,71.24
2023-03-26T22:45:09.257Z,71.11
2023-03-26T22:47:36.275Z,71.41
2023-03-26T22:50:06.075Z,71.34
2023-03-26T22:52:34.001Z,71.47
2023-03-26T22:55:00.851Z,71.37
2023-03-26T22:57:27.977Z,71.24
2023-03-26T22:59:54.770Z,71.15
2023-03-26T23:02:22.092Z,71.24
2023-03-26T23:04:49.059Z,71.27
2023-03-26T23:07:15.951Z,71.14
2023-03-26T23:09:42.748Z,71.20
2023-03-26T23:12:09.691Z,71.04
2023-03-26T23:14:36.461Z,71.09
2023-03-26T23:17:03.740Z,70.93
2023-03-26T23:19:30.647Z,70.92
2023-03-26T23:21:57.623Z,70.87
2023-03-26T23:24:26.585Z,70.93
2023-03-26T23:26:53.484Z,70.87
2023-03-26T23:29:20.307Z,70.72
2023-03-26T23:31:47.691Z,70.87
2023-03-26T23:34:16.355Z,70.61
2023-03-26T23:36:44.710Z,70.66
2023-03-26T23:39:20.641Z,70.47
2023-03-26T23:41:48.119Z,70.40
2023-03-26T23:44:17.042Z,70.39
2023-03-26T23:46:44.271Z,70.12
2023-03-26T23:49:12.158Z,70.24
2023-03-26T23:51:39.044Z,69.82
2023-03-26T23:54:06.693Z,70.08
2023-03-26T23:56:33.504Z,69.75
2023-03-26T23:59:00.743Z,69.78
